createdAt,value
2018-05-23T00:01:41.079Z,95442
2018-05-23T00:07:09.309Z,95438
2018-05-23T00:12:37.509Z,95447
2018-05-23T00:18:05.686Z,95439
2018-05-23T00:23:34.612Z,95438
2018-05-23T00:29:02.795Z,95440
2018-05-23T00:34:30.940Z,95438
2018-05-23T00:39:59.095Z,95432
2018-05-23T00:45:27.242Z,95434
2018-05-23T00:50:55.402Z,95430
2018-05-23T00:56:23.553Z,95440
2018-05-23T01:01:51.703Z,95448
2018-05-23T01:07:19.853Z,95454
2018-05-23T01:12:48.014Z,95453
2018-05-23T01:18:16.190Z,95463
2018-05-23T01:23:44.360Z,95463
2018-05-23T01:29:13.276Z,95463
2018-05-23T01:34:41.486Z,95482
2018-05-23T01:40:09.680Z,95483
2018-05-23T01:45:37.915Z,95483
2018-05-23T01:51:06.084Z,95495
2018-05-23T01:56:34.242Z,95492
2018-05-23T02:02:02.381Z,95503
2018-05-23T02:07:30.531Z,95496
2018-05-23T02:12:59.691Z,95503
2018-05-23T02:18:28.608Z,95503
2018-05-23T02:23:56.762Z,95507
2018-05-23T02:29:24.897Z,95505
2018-05-23T02:34:53.047Z,95509
2018-05-23T02:40:21.194Z,95505
2018-05-23T02:45:50.090Z,95508
2018-05-23T02:51:18.260Z,95513
2018-05-23T02:56:46.413Z,95521
2018-05-23T03:02:14.630Z,95536
2018-05-23T03:07:42.803Z,95538
2018-05-23T03:13:10.952Z,95551
2018-05-23T03:18:39.127Z,95555
2018-05-23T03:24:07.294Z,95558
2018-05-23T03:29:35.443Z,95564
2018-05-23T03:35:03.617Z,95560
2018-05-23T03:40:32.533Z,95564
2018-05-23T03:46:00.693Z,95568
2018-05-23T03:51:28.883Z,95567
2018-05-23T03:56:57.015Z,95572
2018-05-23T04:02:43.850Z,95573
2018-05-23T04:08:13.932Z,95576
2018-05-23T04:13:42.123Z,95573
2018-05-23T04:19:10.322Z,95585
2018-05-23T04:24:38.529Z,95592
2018-05-23T04:30:06.721Z,95588
2018-05-23T04:35:35.659Z,95592
2018-05-23T04:41:03.820Z,95598
2018-05-23T04:46:31.963Z,95606
2018-05-23T04:52:00.117Z,95609
2018-05-23T04:57:29.033Z,95615
2018-05-23T05:02:57.186Z,95629
2018-05-23T05:08:26.098Z,95629
2018-05-23T05:13:54.258Z,95644
2018-05-23T05:19:22.404Z,95635
2018-05-23T05:24:50.630Z,95651
2018-05-23T05:30:18.713Z,95654
2018-05-23T05:35:46.851Z,95653
2018-05-23T05:41:15.028Z,95655
2018-05-23T05:46:43.977Z,95666
2018-05-23T05:52:12.902Z,95672
2018-05-23T05:57:41.060Z,95666
2018-05-23T06:03:09.209Z,95675
2018-05-23T06:08:37.401Z,95684
2018-05-23T06:14:05.613Z,95684
2018-05-23T06:19:33.756Z,95683
2018-05-23T06:25:01.885Z,95689
2018-05-23T06:30:30.204Z,95695
2018-05-23T06:35:58.967Z,95695
2018-05-23T06:41:27.096Z,95693
2018-05-23T06:46:56.006Z,95695
2018-05-23T06:52:24.155Z,95704
2018-05-23T06:57:52.292Z,95709
2018-05-23T07:03:21.209Z,95711
2018-05-23T07:08:49.357Z,95706
2018-05-23T07:14:17.483Z,95705
2018-05-23T07:19:45.632Z,95723
2018-05-23T07:25:14.545Z,95716
2018-05-23T07:30:43.651Z,95719
2018-05-23T07:36:12.581Z,95726
2018-05-23T07:41:40.746Z,95721
2018-05-23T07:47:08.940Z,95735
2018-05-23T07:52:37.103Z,95732
2018-05-23T07:58:05.274Z,95727
2018-05-23T08:03:34.188Z,95723
2018-05-23T08:09:02.352Z,95722
2018-05-23T08:14:30.495Z,95719
2018-05-23T08:19:58.641Z,95720
2018-05-23T08:25:27.724Z,95717
2018-05-23T08:30:56.649Z,95711
2018-05-23T08:36:24.867Z,95725
2018-05-23T08:41:52.966Z,95722
2018-05-23T08:47:21.128Z,95724
2018-05-23T08:52:50.037Z,95730
2018-05-23T08:58:18.176Z,95725
2018-05-23T09:03:47.080Z,95721
2018-05-23T09:09:15.239Z,95722
2018-05-23T09:14:44.147Z,95744
2018-05-23T09:20:12.293Z,95731
2018-05-23T09:25:41.209Z,95728
2018-05-23T09:31:09.378Z,95733
2018-05-23T09:36:37.561Z,95741
2018-05-23T09:42:06.473Z,95742
2018-05-23T09:47:34.637Z,95740
2018-05-23T09:53:02.807Z,95737
2018-05-23T09:58:30.964Z,95748
2018-05-23T10:03:59.867Z,95736
2018-05-23T10:09:28.042Z,95737
2018-05-23T10:14:56.173Z,95734
2018-05-23T10:20:24.319Z,95740
2018-05-23T10:25:52.448Z,95733
2018-05-23T10:31:20.594Z,95723
2018-05-23T10:36:53.938Z,95730
2018-05-23T10:42:22.843Z,95721
2018-05-23T10:47:51.741Z,95730
2018-05-23T10:53:19.886Z,95730
2018-05-23T10:58:48.041Z,95727
2018-05-23T11:04:16.197Z,95718
2018-05-23T11:09:44.382Z,95720
2018-05-23T11:15:13.387Z,95722
2018-05-23T11:20:41.500Z,95721
2018-05-23T11:26:09.697Z,95714
2018-05-23T11:31:37.886Z,95715
2018-05-23T11:37:06.904Z,95706
2018-05-23T11:42:35.077Z,95702
2018-05-23T11:48:03.212Z,95698
2018-05-23T11:53:31.412Z,95694
2018-05-23T11:58:59.565Z,95687
2018-05-23T12:04:27.780Z,95684
2018-05-23T12:09:55.922Z,95687
2018-05-23T12:15:24.086Z,95688
2018-05-23T12:21:06.609Z,95682
2018-05-23T12:26:35.578Z,95676
2018-05-23T12:32:03.742Z,95672
2018-05-23T12:37:31.947Z,95668
2018-05-23T12:43:00.837Z,95667
2018-05-23T12:48:28.983Z,95652
2018-05-23T12:53:57.124Z,95651
2018-05-23T12:59:26.038Z,95658
2018-05-23T13:04:54.187Z,95658
2018-05-23T13:10:22.330Z,95653
2018-05-23T13:15:50.486Z,95650
2018-05-23T13:21:19.384Z,95643
2018-05-23T13:26:47.542Z,95647
2018-05-23T13:32:16.471Z,95638
2018-05-23T13:37:45.421Z,95639
2018-05-23T13:43:13.582Z,95620
2018-05-23T13:48:41.751Z,95620
2018-05-23T13:54:10.685Z,95617
2018-05-23T13:59:39.619Z,95613
2018-05-23T14:05:07.782Z,95605
2018-05-23T14:10:36.009Z,95607
2018-05-23T14:16:04.180Z,95600
2018-05-23T14:21:32.329Z,95613
2018-05-23T14:27:00.480Z,95601
2018-05-23T14:32:28.646Z,95588
2018-05-23T14:37:57.571Z,95585
2018-05-23T14:43:25.782Z,95590
2018-05-23T14:48:54.681Z,95589
2018-05-23T14:54:22.836Z,95599
2018-05-23T14:59:50.980Z,95607
2018-05-23T15:05:19.894Z,95624
2018-05-23T15:10:48.073Z,95625
2018-05-23T15:16:16.249Z,95630
2018-05-23T15:21:44.461Z,95630
2018-05-23T15:27:12.636Z,95629
2018-05-23T15:32:40.805Z,95626
2018-05-23T15:38:08.952Z,95640
2018-05-23T15:43:37.168Z,95636
2018-05-23T15:49:05.343Z,95636
2018-05-23T15:54:33.515Z,95640
2018-05-23T16:00:02.430Z,95629
2018-05-23T16:05:30.598Z,95620
2018-05-23T16:10:58.750Z,95623
2018-05-23T16:16:26.895Z,95634
2018-05-23T16:21:55.899Z,95633
2018-05-23T16:27:24.104Z,95634
2018-05-23T16:32:52.245Z,95631
2018-05-23T16:38:23.788Z,95626
2018-05-23T16:43:52.719Z,95634
2018-05-23T16:49:21.628Z,95632
2018-05-23T16:54:49.869Z,95636
2018-05-23T17:00:19.757Z,95639
2018-05-23T17:05:47.911Z,95644
2018-05-23T17:11:16.179Z,95645
2018-05-23T17:16:44.464Z,95647
2018-05-23T17:22:13.564Z,95649
2018-05-23T17:27:42.112Z,95658
2018-05-23T17:33:10.312Z,95654
2018-05-23T17:38:38.490Z,95662
2018-05-23T17:44:06.721Z,95655
2018-05-23T17:49:34.811Z,95654
2018-05-23T17:55:05.540Z,95672
2018-05-23T18:00:33.684Z,95695
2018-05-23T18:06:01.952Z,95705
2018-05-23T18:11:30.025Z,95730
2018-05-23T18:16:58.211Z,95731
2018-05-23T18:22:27.112Z,95744
2018-05-23T18:27:55.271Z,95762
2018-05-23T18:33:24.201Z,95754
2018-05-23T18:38:53.521Z,95754
2018-05-23T18:44:21.646Z,95750
2018-05-23T18:49:50.744Z,95742
2018-05-23T18:55:19.020Z,95737
2018-05-23T19:00:47.166Z,95725
2018-05-23T19:06:16.089Z,95715
2018-05-23T19:11:44.266Z,95714
2018-05-23T19:17:12.512Z,95723
2018-05-23T19:22:40.665Z,95714
2018-05-23T19:28:09.588Z,95703
2018-05-23T19:33:38.827Z,95708
2018-05-23T19:39:08.084Z,95716
2018-05-23T19:44:36.396Z,95706
2018-05-23T19:50:05.376Z,95725
2018-05-23T19:55:33.566Z,95738
2018-05-23T20:01:02.493Z,95736
2018-05-23T20:06:30.637Z,95724
2018-05-23T20:11:59.604Z,95736
2018-05-23T20:17:27.740Z,95752
2018-05-23T20:22:55.886Z,95762
2018-05-23T20:28:24.145Z,95756
2018-05-23T20:33:52.318Z,95749
2018-05-23T20:39:20.489Z,95752
2018-05-23T20:44:48.682Z,95753
2018-05-23T20:50:16.916Z,95751
2018-05-23T20:55:45.875Z,95756
2018-05-23T21:01:14.045Z,95754
2018-05-23T21:06:42.244Z,95758
2018-05-23T21:12:10.463Z,95753
2018-05-23T21:17:38.703Z,95753
2018-05-23T21:23:06.957Z,95765
2018-05-23T21:28:35.203Z,95759
2018-05-23T21:34:04.343Z,95764
2018-05-23T21:39:32.565Z,95762
2018-05-23T21:45:00.729Z,95763
2018-05-23T21:50:28.868Z,95768
2018-05-23T21:55:57.021Z,95760
2018-05-23T22:01:25.173Z,95776
2018-05-23T22:06:53.506Z,95768
2018-05-23T22:12:21.682Z,95775
2018-05-23T22:17:49.873Z,95774
2018-05-23T22:23:18.019Z,95775
2018-05-23T22:28:46.194Z,95760
2018-05-23T22:34:14.365Z,95767
2018-05-23T22:39:42.508Z,95769
2018-05-23T22:45:10.723Z,95757
2018-05-23T22:50:39.670Z,95767
2018-05-23T22:56:08.788Z,95770
2018-05-23T23:01:37.625Z,95772
2018-05-23T23:07:05.860Z,95758
2018-05-23T23:12:34.013Z,95761
2018-05-23T23:18:02.157Z,95757
2018-05-23T23:23:32.024Z,95756
2018-05-23T23:29:00.997Z,95756
2018-05-23T23:34:29.139Z,95762
2018-05-23T23:39:57.302Z,95763
2018-05-23T23:45:26.226Z,95745
2018-05-23T23:50:54.369Z,95750
2018-05-23T23:56:22.509Z,95757
